createdAt,value
2016-08-02T00:00:31.011Z,-81
2016-08-02T00:01:31.162Z,-81
2016-08-02T00:02:31.159Z,-81
2016-08-02T00:03:31.275Z,-81
2016-08-02T00:04:31.104Z,-81
2016-08-02T00:05:31.198Z,-81
2016-08-02T00:06:31.205Z,-81
2016-08-02T00:07:31.105Z,-81
2016-08-02T00:09:31.119Z,-81
2016-08-02T00:10:31.029Z,-81
2016-08-02T00:11:31.208Z,-81
2016-08-02T00:12:31.199Z,-81
2016-08-02T00:13:31.122Z,-81
2016-08-02T00:14:31.198Z,-81
2016-08-02T00:15:31.052Z,-81
2016-08-02T00:16:31.202Z,-80
2016-08-02T00:17:31.118Z,-81
2016-08-02T00:18:31.133Z,-80
2016-08-02T00:19:31.140Z,-80
2016-08-02T00:20:31.225Z,-81
2016-08-02T00:21:31.234Z,-81
2016-08-02T00:22:31.224Z,-81
2016-08-02T00:23:31.094Z,-81
2016-08-02T00:24:31.066Z,-80
2016-08-02T00:25:31.233Z,-80
2016-08-02T00:26:31.268Z,-81
2016-08-02T00:27:31.153Z,-81
2016-08-02T00:28:31.310Z,-80
2016-08-02T00:29:31.148Z,-81
2016-08-02T00:30:31.323Z,-81
2016-08-02T00:31:31.173Z,-81
2016-08-02T00:32:31.324Z,-81
2016-08-02T00:33:31.256Z,-81
2016-08-02T00:34:31.283Z,-81
2016-08-02T00:35:31.280Z,-81
2016-08-02T00:36:31.194Z,-82
2016-08-02T00:37:31.269Z,-81
2016-08-02T00:38:31.201Z,-82
2016-08-02T00:39:31.180Z,-82
2016-08-02T00:40:31.348Z,-82
2016-08-02T00:41:31.230Z,-82
2016-08-02T00:42:31.274Z,-83
2016-08-02T00:43:31.127Z,-82
2016-08-02T00:44:31.197Z,-83
2016-08-02T00:45:31.300Z,-83
2016-08-02T00:46:31.224Z,-83
2016-08-02T00:47:31.285Z,-84
2016-08-02T00:48:31.288Z,-83
2016-08-02T00:49:31.296Z,-83
2016-08-02T00:50:31.298Z,-84
2016-08-02T00:51:31.160Z,-84
2016-08-02T00:52:31.219Z,-84
2016-08-02T00:53:31.234Z,-84
2016-08-02T00:54:31.226Z,-84
2016-08-02T00:55:31.320Z,-85
2016-08-02T00:56:31.237Z,-84
2016-08-02T00:57:31.345Z,-84
2016-08-02T00:58:31.314Z,-84
2016-08-02T00:59:31.247Z,-85
2016-08-02T01:00:31.261Z,-84
2016-08-02T01:01:31.328Z,-84
2016-08-02T01:02:31.271Z,-84
2016-08-02T01:03:31.520Z,-84
2016-08-02T01:04:31.249Z,-84
2016-08-02T01:05:31.268Z,-84
2016-08-02T01:06:31.421Z,-84
2016-08-02T01:07:31.279Z,-84
2016-08-02T01:08:31.355Z,-84
2016-08-02T01:09:31.421Z,-84
2016-08-02T01:10:31.281Z,-84
2016-08-02T01:11:31.376Z,-84
2016-08-02T01:12:31.430Z,-84
2016-08-02T01:13:31.297Z,-84
2016-08-02T01:14:31.223Z,-84
2016-08-02T01:15:31.366Z,-84
2016-08-02T01:16:31.287Z,-84
2016-08-02T01:17:31.213Z,-85
2016-08-02T01:18:31.291Z,-85
2016-08-02T01:19:31.452Z,-85
2016-08-02T01:20:31.303Z,-85
2016-08-02T01:21:31.394Z,-85
2016-08-02T01:22:31.407Z,-85
2016-08-02T01:23:31.379Z,-84
2016-08-02T01:24:31.311Z,-84
2016-08-02T01:25:31.327Z,-85
2016-08-02T01:26:31.314Z,-84
2016-08-02T01:27:31.344Z,-84
2016-08-02T01:28:31.321Z,-83
2016-08-02T01:29:31.327Z,-84
2016-08-02T01:30:31.486Z,-83
2016-08-02T01:31:32.140Z,-83
2016-08-02T01:32:31.505Z,-82
2016-08-02T01:33:31.424Z,-82
2016-08-02T01:34:31.410Z,-82
2016-08-02T01:35:31.272Z,-82
2016-08-02T01:36:31.269Z,-82
2016-08-02T01:37:31.352Z,-82
2016-08-02T01:38:31.341Z,-81
2016-08-02T01:39:31.436Z,-82
2016-08-02T01:40:31.504Z,-82
2016-08-02T01:41:31.433Z,-81
2016-08-02T01:42:31.522Z,-81
2016-08-02T01:43:31.357Z,-82
2016-08-02T01:44:31.383Z,-81
2016-08-02T01:45:31.450Z,-81
2016-08-02T01:46:31.381Z,-82
2016-08-02T01:47:31.457Z,-81
2016-08-02T01:48:31.536Z,-81
2016-08-02T01:49:31.475Z,-81
2016-08-02T01:50:31.469Z,-81
2016-08-02T01:51:31.950Z,-81
2016-08-02T01:52:31.493Z,-81
2016-08-02T01:53:31.400Z,-81
2016-08-02T01:54:31.410Z,-81
2016-08-02T01:55:31.423Z,-81
2016-08-02T01:56:31.557Z,-81
2016-08-02T01:57:31.485Z,-81
2016-08-02T01:58:31.520Z,-81
2016-08-02T01:59:31.481Z,-82
2016-08-02T02:00:31.565Z,-81
2016-08-02T02:01:31.423Z,-81
2016-08-02T02:02:31.492Z,-81
2016-08-02T02:03:31.515Z,-81
2016-08-02T02:04:31.543Z,-82
2016-08-02T02:05:31.439Z,-81
2016-08-02T02:06:31.430Z,-81
2016-08-02T02:07:31.442Z,-81
2016-08-02T02:08:31.452Z,-81
2016-08-02T02:09:31.458Z,-81
2016-08-02T02:10:31.613Z,-82
2016-08-02T02:11:31.549Z,-81
2016-08-02T02:12:31.603Z,-81
2016-08-02T02:13:31.530Z,-81
2016-08-02T02:14:31.689Z,-81
2016-08-02T02:15:31.595Z,-81
2016-08-02T02:16:31.673Z,-81
2016-08-02T02:17:31.620Z,-81
2016-08-02T02:18:31.522Z,-81
2016-08-02T02:19:31.755Z,-81
2016-08-02T02:20:31.546Z,-81
2016-08-02T02:21:31.689Z,-82
2016-08-02T02:22:31.554Z,-82
2016-08-02T02:23:31.790Z,-81
2016-08-02T02:24:31.723Z,-82
2016-08-02T02:25:31.569Z,-81
2016-08-02T02:26:31.762Z,-82
2016-08-02T02:27:31.772Z,-81
2016-08-02T02:28:31.631Z,-81
2016-08-02T02:29:31.593Z,-81
2016-08-02T02:30:31.646Z,-81
2016-08-02T02:31:31.632Z,-81
2016-08-02T02:32:31.594Z,-81
2016-08-02T02:33:31.588Z,-81
2016-08-02T02:34:31.523Z,-81
2016-08-02T02:35:31.511Z,-81
2016-08-02T02:36:31.513Z,-81
2016-08-02T02:37:31.464Z,-81
2016-08-02T02:38:31.450Z,-81
2016-08-02T02:39:31.535Z,-81
2016-08-02T02:40:31.600Z,-81
2016-08-02T02:41:31.542Z,-81
2016-08-02T02:42:31.717Z,-81
2016-08-02T02:43:31.603Z,-81
2016-08-02T02:44:31.539Z,-81
2016-08-02T02:45:31.562Z,-81
2016-08-02T02:46:31.545Z,-81
2016-08-02T02:47:31.551Z,-81
2016-08-02T02:48:31.562Z,-81
2016-08-02T02:49:31.621Z,-81
2016-08-02T02:50:31.548Z,-81
2016-08-02T02:51:31.732Z,-82
2016-08-02T02:52:31.651Z,-81
2016-08-02T02:53:31.646Z,-81
2016-08-02T02:54:31.667Z,-81
2016-08-02T02:55:31.523Z,-81
2016-08-02T02:56:31.652Z,-81
2016-08-02T02:57:31.580Z,-81
2016-08-02T02:58:31.772Z,-81
2016-08-02T02:59:31.660Z,-81
2016-08-02T03:00:31.758Z,-81
2016-08-02T03:01:31.680Z,-81
2016-08-02T03:02:31.596Z,-81
2016-08-02T03:03:31.762Z,-82
2016-08-02T03:04:31.641Z,-82
2016-08-02T03:05:31.621Z,-81
2016-08-02T03:06:31.685Z,-81
2016-08-02T03:07:31.747Z,-81
2016-08-02T03:08:31.528Z,-81
2016-08-02T03:09:31.678Z,-81
2016-08-02T03:10:31.688Z,-81
2016-08-02T03:11:31.779Z,-81
2016-08-02T03:12:31.772Z,-81
2016-08-02T03:13:31.729Z,-81
2016-08-02T03:14:31.880Z,-81
2016-08-02T03:15:31.628Z,-81
2016-08-02T03:16:31.620Z,-81
2016-08-02T03:17:31.709Z,-81
2016-08-02T03:18:31.708Z,-81
2016-08-02T03:19:31.563Z,-81
2016-08-02T03:20:31.559Z,-81
2016-08-02T03:21:31.719Z,-81
2016-08-02T03:22:31.678Z,-81
2016-08-02T03:23:31.578Z,-81
2016-08-02T03:24:31.734Z,-81
2016-08-02T03:25:31.661Z,-81
2016-08-02T03:26:31.584Z,-81
2016-08-02T03:27:31.746Z,-81
2016-08-02T03:28:31.596Z,-81
2016-08-02T03:29:31.664Z,-81
2016-08-02T03:30:31.937Z,-81
2016-08-02T03:31:31.618Z,-81
2016-08-02T03:32:31.840Z,-81
2016-08-02T03:33:31.746Z,-81
2016-08-02T03:34:31.610Z,-81
2016-08-02T03:35:31.770Z,-81
2016-08-02T03:36:31.849Z,-81
2016-08-02T03:37:31.697Z,-81
2016-08-02T03:38:31.691Z,-81
2016-08-02T03:39:31.782Z,-81
2016-08-02T03:40:31.742Z,-81
2016-08-02T03:41:31.714Z,-82
2016-08-02T03:42:31.705Z,-81
2016-08-02T03:43:31.784Z,-81
2016-08-02T03:44:31.627Z,-81
2016-08-02T03:45:31.717Z,-81
2016-08-02T03:46:31.842Z,-81
2016-08-02T03:47:31.868Z,-81
2016-08-02T03:48:31.797Z,-81
2016-08-02T03:49:31.728Z,-81
2016-08-02T03:50:31.744Z,-81
2016-08-02T03:51:31.722Z,-81
2016-08-02T03:52:31.807Z,-82
2016-08-02T03:53:31.811Z,-81
2016-08-02T03:54:31.738Z,-81
2016-08-02T03:55:31.731Z,-81
2016-08-02T03:56:31.826Z,-81
2016-08-02T03:57:31.893Z,-81
2016-08-02T03:58:31.900Z,-81
2016-08-02T03:59:31.747Z,-82
2016-08-02T04:00:31.827Z,-82
2016-08-02T04:01:31.912Z,-82
2016-08-02T04:02:31.926Z,-81
2016-08-02T04:03:31.925Z,-81
2016-08-02T04:04:31.961Z,-81
2016-08-02T04:05:31.763Z,-81
2016-08-02T04:06:31.772Z,-81
2016-08-02T04:07:31.857Z,-81
2016-08-02T04:08:31.696Z,-82
2016-08-02T04:09:31.860Z,-81
2016-08-02T04:10:31.863Z,-81
2016-08-02T04:11:31.707Z,-81
2016-08-02T04:12:31.823Z,-82
2016-08-02T04:13:31.882Z,-82
2016-08-02T04:14:31.953Z,-81
2016-08-02T04:15:31.968Z,-81
2016-08-02T04:16:31.870Z,-81
2016-08-02T04:17:31.889Z,-82
2016-08-02T04:18:32.015Z,-81
2016-08-02T04:19:31.824Z,-81
2016-08-02T04:20:31.878Z,-81
2016-08-02T04:21:31.975Z,-82
2016-08-02T04:22:31.907Z,-81
2016-08-02T04:23:31.818Z,-82
2016-08-02T04:24:31.905Z,-82
2016-08-02T04:25:31.981Z,-81
2016-08-02T04:26:31.929Z,-82
2016-08-02T04:27:31.915Z,-81
2016-08-02T04:28:31.908Z,-82
2016-08-02T04:29:31.935Z,-82
2016-08-02T04:30:31.834Z,-81
2016-08-02T04:31:31.925Z,-82
2016-08-02T04:32:31.892Z,-82
2016-08-02T04:33:31.915Z,-82
2016-08-02T04:34:32.010Z,-82
2016-08-02T04:35:32.018Z,-81
2016-08-02T04:36:31.943Z,-82
2016-08-02T04:37:32.022Z,-82
2016-08-02T04:38:31.870Z,-81
2016-08-02T04:39:31.814Z,-81
2016-08-02T04:40:31.942Z,-82
2016-08-02T04:41:31.959Z,-82
2016-08-02T04:42:31.899Z,-82
2016-08-02T04:43:31.879Z,-82
2016-08-02T04:44:31.867Z,-81
2016-08-02T04:45:31.878Z,-82
2016-08-02T04:46:31.878Z,-82
2016-08-02T04:47:32.063Z,-81
2016-08-02T04:48:31.890Z,-81
2016-08-02T04:49:32.052Z,-82
2016-08-02T04:50:32.094Z,-81
2016-08-02T04:51:31.928Z,-96
2016-08-02T04:52:31.986Z,-96
2016-08-02T04:53:31.981Z,-96
2016-08-02T04:54:31.922Z,-96
2016-08-02T04:55:31.930Z,-96
2016-08-02T04:56:31.994Z,-96
2016-08-02T04:57:31.906Z,-96
2016-08-02T04:58:31.990Z,-94
2016-08-02T04:59:31.845Z,-95
2016-08-02T05:00:31.845Z,-96
2016-08-02T05:01:32.510Z,-96
2016-08-02T05:02:31.961Z,-95
2016-08-02T05:03:31.853Z,-96
2016-08-02T05:04:32.021Z,-95
2016-08-02T05:05:32.129Z,-95
2016-08-02T05:06:32.195Z,-95
2016-08-02T05:07:32.102Z,-94
2016-08-02T05:08:31.967Z,-96
2016-08-02T05:09:31.974Z,-96
2016-08-02T05:10:31.981Z,-95
2016-08-02T05:11:32.026Z,-95
2016-08-02T05:12:31.873Z,-95
2016-08-02T05:13:31.969Z,-96
2016-08-02T05:14:32.049Z,-95
2016-08-02T05:15:31.888Z,-96
2016-08-02T05:16:31.886Z,-95
2016-08-02T05:17:31.973Z,-95
2016-08-02T05:18:32.053Z,-96
2016-08-02T05:19:31.983Z,-96
2016-08-02T05:20:31.976Z,-95
2016-08-02T05:21:32.057Z,-95
2016-08-02T05:22:32.134Z,-95
2016-08-02T05:23:32.086Z,-96
2016-08-02T05:24:31.996Z,-96
2016-08-02T05:25:32.082Z,-95
2016-08-02T05:26:32.014Z,-96
2016-08-02T05:27:32.160Z,-95
2016-08-02T05:28:32.011Z,-94
2016-08-02T05:29:32.067Z,-95
2016-08-02T05:30:32.163Z,-94
2016-08-02T05:31:31.940Z,-94
2016-08-02T05:32:32.023Z,-94
2016-08-02T05:33:31.940Z,-94
2016-08-02T05:34:32.108Z,-95
2016-08-02T05:35:32.196Z,-94
2016-08-02T05:36:32.088Z,-95
2016-08-02T05:37:32.043Z,-95
2016-08-02T05:38:32.166Z,-96
2016-08-02T05:39:33.526Z,-95
2016-08-02T05:40:32.114Z,-95
2016-08-02T05:41:32.100Z,-95
2016-08-02T05:42:32.134Z,-95
2016-08-02T05:43:32.714Z,-95
2016-08-02T05:44:33.665Z,-96
2016-08-02T05:45:36.488Z,-95
2016-08-02T05:46:33.635Z,-95
2016-08-02T05:47:32.140Z,-95
2016-08-02T05:48:32.223Z,-95
2016-08-02T05:49:32.056Z,-96
2016-08-02T05:50:32.142Z,-96
2016-08-02T05:51:32.168Z,-95
2016-08-02T05:52:32.075Z,-95
2016-08-02T05:53:32.024Z,-95
2016-08-02T05:54:32.183Z,-95
2016-08-02T05:55:32.053Z,-95
2016-08-02T05:56:32.076Z,-94
2016-08-02T05:57:32.086Z,-95
2016-08-02T05:58:32.095Z,-95
2016-08-02T05:59:32.033Z,-95
2016-08-02T06:00:32.179Z,-95
2016-08-02T06:01:32.095Z,-96
2016-08-02T06:02:32.089Z,-96
2016-08-02T06:03:32.206Z,-95
2016-08-02T06:04:32.036Z,-96
2016-08-02T06:05:32.145Z,-95
2016-08-02T06:06:32.041Z,-94
2016-08-02T06:07:32.192Z,-95
2016-08-02T06:08:32.114Z,-95
2016-08-02T06:09:32.093Z,-95
2016-08-02T06:10:32.265Z,-95
2016-08-02T06:11:32.053Z,-96
2016-08-02T06:12:32.206Z,-95
2016-08-02T06:13:32.208Z,-96
2016-08-02T06:14:32.237Z,-96
2016-08-02T06:15:32.225Z,-96
2016-08-02T06:16:32.201Z,-96
2016-08-02T06:17:32.282Z,-94
2016-08-02T06:18:32.143Z,-95
2016-08-02T06:19:32.301Z,-95
2016-08-02T06:20:32.238Z,-94
2016-08-02T06:21:32.325Z,-96
2016-08-02T06:22:32.168Z,-96
2016-08-02T06:23:32.180Z,-95
2016-08-02T06:25:32.171Z,-95
2016-08-02T06:26:32.221Z,-96
2016-08-02T06:27:32.263Z,-95
2016-08-02T06:28:32.250Z,-95
2016-08-02T06:29:32.179Z,-95
2016-08-02T06:30:32.115Z,-95
2016-08-02T06:31:32.195Z,-95
2016-08-02T06:32:32.315Z,-95
2016-08-02T06:33:32.173Z,-95
2016-08-02T06:34:32.279Z,-96
2016-08-02T06:35:32.194Z,-95
2016-08-02T06:36:32.191Z,-95
2016-08-02T06:37:32.355Z,-95
2016-08-02T06:38:32.192Z,-95
2016-08-02T06:40:32.286Z,-95
2016-08-02T06:41:32.204Z,-96
2016-08-02T06:42:32.342Z,-96
2016-08-02T06:43:32.309Z,-96
2016-08-02T06:44:32.227Z,-96
2016-08-02T06:45:32.236Z,-96
2016-08-02T06:46:32.691Z,-95
2016-08-02T06:47:32.601Z,-95
2016-08-02T06:48:32.505Z,-96
2016-08-02T06:49:33.061Z,-95
2016-08-02T06:50:33.512Z,-96
2016-08-02T06:51:32.168Z,-96
2016-08-02T06:52:32.164Z,-96
2016-08-02T06:53:32.291Z,-96
2016-08-02T06:55:32.241Z,-96
2016-08-02T06:56:32.331Z,-96
2016-08-02T06:57:32.339Z,-96
2016-08-02T06:58:32.262Z,-96
2016-08-02T06:59:32.346Z,-96
2016-08-02T07:00:32.350Z,-96
2016-08-02T07:01:32.365Z,-96
2016-08-02T07:02:32.359Z,-96
2016-08-02T07:03:32.311Z,-96
2016-08-02T07:04:32.422Z,-96
2016-08-02T07:05:32.468Z,-96
2016-08-02T07:06:32.373Z,-96
2016-08-02T07:07:32.435Z,-95
2016-08-02T07:08:32.276Z,-96
2016-08-02T07:09:32.290Z,-96
2016-08-02T07:10:33.005Z,-96
2016-08-02T07:11:32.387Z,-96
2016-08-02T07:12:32.375Z,-96
2016-08-02T07:13:32.486Z,-96
2016-08-02T07:14:32.382Z,-96
2016-08-02T07:15:32.384Z,-96
2016-08-02T07:16:32.522Z,-96
2016-08-02T07:17:32.387Z,-96
2016-08-02T07:18:32.391Z,-96
2016-08-02T07:19:32.358Z,-96
2016-08-02T07:20:32.330Z,-96
2016-08-02T07:21:32.361Z,-96
2016-08-02T07:22:32.337Z,-96
2016-08-02T07:23:32.436Z,-96
2016-08-02T07:24:32.346Z,-96
2016-08-02T07:25:32.366Z,-96
2016-08-02T07:26:32.358Z,-96
2016-08-02T07:27:32.429Z,-96
2016-08-02T07:28:32.409Z,-96
2016-08-02T07:29:32.338Z,-96
2016-08-02T07:30:32.453Z,-96
2016-08-02T07:31:32.435Z,-96
2016-08-02T07:32:32.354Z,-96
2016-08-02T07:33:32.550Z,-96
2016-08-02T07:34:32.444Z,-96
2016-08-02T07:35:32.465Z,-96
2016-08-02T07:36:32.459Z,-96
2016-08-02T07:37:32.524Z,-96
2016-08-02T07:38:32.289Z,-96
2016-08-02T07:39:32.470Z,-96
2016-08-02T07:40:32.490Z,-96
2016-08-02T07:41:32.464Z,-96
2016-08-02T07:42:32.539Z,-96
2016-08-02T07:43:32.388Z,-96
2016-08-02T07:44:32.416Z,-96
2016-08-02T07:45:32.540Z,-96
2016-08-02T07:46:32.467Z,-96
2016-08-02T07:47:32.467Z,-96
2016-08-02T07:48:32.434Z,-96
2016-08-02T07:49:32.413Z,-96
2016-08-02T07:50:32.485Z,-96
2016-08-02T07:51:32.569Z,-96
2016-08-02T07:52:32.576Z,-96
2016-08-02T07:53:32.421Z,-96
2016-08-02T07:54:32.490Z,-96
2016-08-02T07:55:32.434Z,-96
2016-08-02T07:56:32.425Z,-96
2016-08-02T07:57:32.454Z,-96
2016-08-02T07:58:32.553Z,-96
2016-08-02T07:59:32.441Z,-96
2016-08-02T08:00:32.466Z,-96
2016-08-02T08:01:32.366Z,-96
2016-08-02T08:02:32.442Z,-96
2016-08-02T08:03:32.382Z,-96
2016-08-02T08:04:32.541Z,-91
2016-08-02T08:05:32.585Z,-96
2016-08-02T08:06:32.584Z,-96
2016-08-02T08:07:32.536Z,-96
2016-08-02T08:08:32.589Z,-86
2016-08-02T08:09:32.538Z,-87
2016-08-02T08:10:32.602Z,-90
2016-08-02T08:11:32.500Z,-96
2016-08-02T08:12:32.489Z,-96
2016-08-02T08:13:32.616Z,-96
2016-08-02T08:14:32.679Z,-96
2016-08-02T08:15:32.631Z,-96
2016-08-02T08:16:32.498Z,-96
2016-08-02T08:17:32.419Z,-96
2016-08-02T08:18:32.482Z,-96
2016-08-02T08:19:32.608Z,-96
2016-08-02T08:20:32.655Z,-96
2016-08-02T08:21:32.517Z,-96
2016-08-02T08:22:32.667Z,-96
2016-08-02T08:23:32.602Z,-96
2016-08-02T08:24:32.507Z,-96
2016-08-02T08:25:32.606Z,-96
2016-08-02T08:26:32.582Z,-96
2016-08-02T08:27:32.591Z,-96
2016-08-02T08:28:32.544Z,-96
2016-08-02T08:29:32.526Z,-96
2016-08-02T08:30:32.558Z,-96
2016-08-02T08:31:32.610Z,-96
2016-08-02T08:32:32.625Z,-96
2016-08-02T08:33:32.695Z,-96
2016-08-02T08:34:32.664Z,-96
2016-08-02T08:35:32.581Z,-96
2016-08-02T08:36:33.591Z,-96
2016-08-02T08:37:32.634Z,-96
2016-08-02T08:38:32.539Z,-96
2016-08-02T08:39:32.549Z,-95
2016-08-02T08:40:32.661Z,-96
2016-08-02T08:41:32.616Z,-96
2016-08-02T08:42:32.649Z,-94
2016-08-02T08:43:32.568Z,-95
2016-08-02T08:44:32.541Z,-95
2016-08-02T08:45:32.658Z,-94
2016-08-02T08:46:32.725Z,-96
2016-08-02T08:47:32.584Z,-94
2016-08-02T08:48:32.822Z,-94
2016-08-02T08:49:32.756Z,-95
2016-08-02T08:50:32.615Z,-94
2016-08-02T08:51:32.546Z,-94
2016-08-02T08:52:32.683Z,-94
2016-08-02T08:53:32.597Z,-92
2016-08-02T08:55:32.654Z,-93
2016-08-02T08:56:32.590Z,-93
2016-08-02T08:57:32.621Z,-94
2016-08-02T08:58:32.600Z,-92
2016-08-02T08:59:32.750Z,-93
2016-08-02T09:00:32.704Z,-93
2016-08-02T09:01:33.123Z,-92
2016-08-02T09:03:37.504Z,-92
2016-08-02T09:03:44.579Z,-91
2016-08-02T09:04:44.501Z,-91
2016-08-02T09:05:44.581Z,-89
2016-08-02T09:06:44.541Z,-91
2016-08-02T09:07:44.345Z,-91
2016-08-02T09:08:44.508Z,-91
2016-08-02T09:09:44.500Z,-90
2016-08-02T09:10:44.333Z,-90
2016-08-02T09:11:44.433Z,-89
2016-08-02T09:12:44.519Z,-88
2016-08-02T09:13:44.646Z,-89
2016-08-02T09:14:44.430Z,-86
2016-08-02T09:15:44.579Z,-86
2016-08-02T09:16:44.466Z,-86
2016-08-02T09:17:44.452Z,-86
2016-08-02T09:18:44.552Z,-86
2016-08-02T09:19:44.483Z,-87
2016-08-02T09:20:44.449Z,-86
2016-08-02T09:21:44.405Z,-87
2016-08-02T09:22:44.455Z,-87
2016-08-02T09:23:44.632Z,-86
2016-08-02T09:24:44.547Z,-87
2016-08-02T09:25:44.618Z,-87
2016-08-02T09:26:44.452Z,-87
2016-08-02T09:27:44.406Z,-87
2016-08-02T09:28:44.451Z,-88
2016-08-02T09:29:44.660Z,-86
2016-08-02T09:30:44.583Z,-87
2016-08-02T09:31:44.403Z,-86
2016-08-02T09:32:45.106Z,-87
2016-08-02T09:33:44.505Z,-87
2016-08-02T09:34:44.701Z,-87
2016-08-02T09:35:44.595Z,-87
2016-08-02T09:36:44.484Z,-87
2016-08-02T09:37:44.422Z,-86
2016-08-02T09:38:44.678Z,-86
2016-08-02T09:39:44.435Z,-86
2016-08-02T09:40:44.591Z,-86
2016-08-02T09:41:44.633Z,-87
2016-08-02T09:42:44.705Z,-87
2016-08-02T09:43:44.778Z,-87
2016-08-02T09:44:44.545Z,-93
2016-08-02T09:45:45.384Z,-86
2016-08-02T09:46:46.007Z,-85
2016-08-02T09:47:45.092Z,-85
2016-08-02T09:48:45.330Z,-87
2016-08-02T09:49:47.112Z,-87
2016-08-02T09:50:44.537Z,-87
2016-08-02T09:51:44.610Z,-85
2016-08-02T09:52:44.546Z,-86
2016-08-02T09:53:44.559Z,-85
2016-08-02T09:54:44.760Z,-85
2016-08-02T09:55:44.594Z,-86
2016-08-02T09:56:44.500Z,-86
2016-08-02T09:57:44.639Z,-86
2016-08-02T09:58:44.562Z,-86
2016-08-02T09:59:44.581Z,-87
2016-08-02T10:00:44.732Z,-87
2016-08-02T10:01:44.501Z,-86
2016-08-02T10:02:44.597Z,-86
2016-08-02T10:03:44.578Z,-87
2016-08-02T10:04:44.722Z,-87
2016-08-02T10:05:44.712Z,-87
2016-08-02T10:06:44.715Z,-89
2016-08-02T10:07:44.767Z,-87
2016-08-02T10:08:44.486Z,-86
2016-08-02T10:09:44.508Z,-86
2016-08-02T10:10:44.765Z,-85
2016-08-02T10:11:44.615Z,-85
2016-08-02T10:12:44.774Z,-86
2016-08-02T10:13:44.586Z,-86
2016-08-02T10:14:45.619Z,-85
2016-08-02T10:15:44.614Z,-85
2016-08-02T10:16:44.764Z,-85
2016-08-02T10:17:44.684Z,-86
2016-08-02T10:18:44.699Z,-85
2016-08-02T10:19:44.688Z,-84
2016-08-02T10:20:44.648Z,-86
2016-08-02T10:21:44.662Z,-83
2016-08-02T10:22:44.618Z,-84
2016-08-02T10:23:44.641Z,-84
2016-08-02T10:24:44.640Z,-84
2016-08-02T10:25:44.678Z,-84
2016-08-02T10:26:44.655Z,-84
2016-08-02T10:27:44.645Z,-85
2016-08-02T10:28:44.722Z,-86
2016-08-02T10:29:44.834Z,-87
2016-08-02T10:30:44.678Z,-86
2016-08-02T10:31:44.631Z,-87
2016-08-02T10:32:44.646Z,-86
2016-08-02T10:33:44.723Z,-85
2016-08-02T10:34:44.891Z,-86
2016-08-02T10:35:44.761Z,-84
2016-08-02T10:36:44.661Z,-85
2016-08-02T10:37:44.600Z,-85
2016-08-02T10:38:44.754Z,-85
2016-08-02T10:39:44.766Z,-85
2016-08-02T10:40:44.842Z,-85
2016-08-02T10:41:44.677Z,-87
2016-08-02T10:42:44.668Z,-87
2016-08-02T10:43:44.779Z,-87
2016-08-02T10:44:44.687Z,-87
2016-08-02T10:45:44.762Z,-87
2016-08-02T10:46:44.834Z,-86
2016-08-02T10:47:44.693Z,-87
2016-08-02T10:48:44.699Z,-88
2016-08-02T10:49:45.001Z,-87
2016-08-02T10:50:44.757Z,-86
2016-08-02T10:51:44.695Z,-87
2016-08-02T10:52:44.648Z,-87
2016-08-02T10:53:44.758Z,-87
2016-08-02T10:54:44.753Z,-87
2016-08-02T10:55:44.835Z,-86
2016-08-02T10:56:44.686Z,-88
2016-08-02T10:57:44.818Z,-88
2016-08-02T10:58:44.628Z,-88
2016-08-02T10:59:44.715Z,-88
2016-08-02T11:00:44.860Z,-87
2016-08-02T11:01:44.654Z,-87
2016-08-02T11:02:44.805Z,-87
2016-08-02T11:03:46.036Z,-87
2016-08-02T11:04:44.732Z,-87
2016-08-02T11:05:44.943Z,-87
2016-08-02T11:06:44.830Z,-86
2016-08-02T11:07:44.908Z,-87
2016-08-02T11:08:44.895Z,-87
2016-08-02T11:09:44.836Z,-84
2016-08-02T11:10:44.721Z,-85
2016-08-02T11:11:44.764Z,-85
2016-08-02T11:12:44.763Z,-86
2016-08-02T11:13:44.786Z,-85
2016-08-02T11:14:44.934Z,-86
2016-08-02T11:15:44.768Z,-87
2016-08-02T11:16:44.815Z,-85
2016-08-02T11:17:44.934Z,-85
2016-08-02T11:18:44.901Z,-86
2016-08-02T11:19:44.953Z,-86
2016-08-02T11:20:44.926Z,-92
2016-08-02T11:21:44.934Z,-84
2016-08-02T11:22:44.915Z,-86
2016-08-02T11:23:44.814Z,-88
2016-08-02T11:24:44.829Z,-84
2016-08-02T11:25:44.742Z,-86
2016-08-02T11:26:44.948Z,-85
2016-08-02T11:27:44.938Z,-86
2016-08-02T11:28:45.942Z,-87
2016-08-02T11:29:44.752Z,-87
2016-08-02T11:30:44.822Z,-86
2016-08-02T11:31:44.817Z,-85
2016-08-02T11:32:44.828Z,-84
2016-08-02T11:33:44.939Z,-84
2016-08-02T11:34:44.938Z,-84
2016-08-02T11:35:44.854Z,-85
2016-08-02T11:36:45.587Z,-86
2016-08-02T11:37:45.040Z,-84
2016-08-02T11:38:44.755Z,-84
2016-08-02T11:39:44.864Z,-85
2016-08-02T11:40:44.967Z,-86
2016-08-02T11:41:44.909Z,-87
2016-08-02T11:42:44.934Z,-85
2016-08-02T11:43:44.827Z,-88
2016-08-02T11:44:44.864Z,-86
2016-08-02T11:45:44.936Z,-84
2016-08-02T11:46:47.248Z,-85
2016-08-02T11:47:44.884Z,-85
2016-08-02T11:48:45.019Z,-85
2016-08-02T11:49:44.814Z,-85
2016-08-02T11:50:44.952Z,-84
2016-08-02T11:51:45.030Z,-84
2016-08-02T11:52:44.895Z,-84
2016-08-02T11:53:45.025Z,-84
2016-08-02T11:54:44.878Z,-85
2016-08-02T11:55:44.863Z,-84
2016-08-02T11:56:44.971Z,-83
2016-08-02T11:57:45.810Z,-84
2016-08-02T11:58:44.976Z,-85
2016-08-02T11:59:44.830Z,-83
2016-08-02T12:00:44.879Z,-84
2016-08-02T12:01:44.986Z,-84
2016-08-02T12:02:45.047Z,-84
2016-08-02T12:03:44.928Z,-84
2016-08-02T12:04:44.848Z,-84
2016-08-02T12:05:45.034Z,-84
2016-08-02T12:06:44.945Z,-84
2016-08-02T12:07:45.082Z,-84
2016-08-02T12:08:45.000Z,-84
2016-08-02T12:09:45.031Z,-84
2016-08-02T12:11:44.923Z,-84
2016-08-02T12:12:45.031Z,-84
2016-08-02T12:13:45.033Z,-84
2016-08-02T12:14:45.728Z,-84
2016-08-02T12:15:45.027Z,-84
2016-08-02T12:16:45.093Z,-84
2016-08-02T12:17:44.924Z,-84
2016-08-02T12:18:45.042Z,-82
2016-08-02T12:19:45.029Z,-84
2016-08-02T12:20:44.982Z,-84
2016-08-02T12:21:45.040Z,-84
2016-08-02T12:22:44.969Z,-84
2016-08-02T12:23:45.522Z,-84
2016-08-02T12:24:44.988Z,-84
2016-08-02T12:25:45.600Z,-84
2016-08-02T12:26:44.972Z,-85
2016-08-02T12:27:45.139Z,-84
2016-08-02T12:28:45.002Z,-85
2016-08-02T12:29:44.971Z,-84
2016-08-02T12:30:44.988Z,-85
2016-08-02T12:31:45.002Z,-85
2016-08-02T12:32:45.114Z,-83
2016-08-02T12:33:45.080Z,-84
2016-08-02T12:34:45.107Z,-85
2016-08-02T12:35:45.049Z,-85
2016-08-02T12:36:45.124Z,-85
2016-08-02T12:37:45.145Z,-84
2016-08-02T12:38:45.167Z,-84
2016-08-02T12:39:45.165Z,-84
2016-08-02T12:40:45.023Z,-84
2016-08-02T12:41:45.076Z,-84
2016-08-02T12:42:45.018Z,-85
2016-08-02T12:43:45.363Z,-85
2016-08-02T12:44:45.412Z,-83
2016-08-02T12:45:45.113Z,-82
2016-08-02T12:46:45.226Z,-83
2016-08-02T12:47:45.105Z,-83
2016-08-02T12:48:45.139Z,-83
2016-08-02T12:49:44.961Z,-83
2016-08-02T12:50:45.302Z,-82
2016-08-02T12:51:45.218Z,-83
2016-08-02T12:52:44.990Z,-84
2016-08-02T12:53:45.375Z,-83
2016-08-02T12:54:45.160Z,-83
2016-08-02T12:55:45.144Z,-83
2016-08-02T12:56:45.086Z,-84
2016-08-02T12:57:45.064Z,-82
2016-08-02T12:58:45.161Z,-83
2016-08-02T12:59:45.135Z,-83
2016-08-02T13:00:45.133Z,-83
2016-08-02T13:01:45.072Z,-83
2016-08-02T13:02:45.096Z,-83
2016-08-02T13:03:45.259Z,-84
2016-08-02T13:04:45.237Z,-83
2016-08-02T13:05:45.163Z,-85
2016-08-02T13:06:45.096Z,-85
2016-08-02T13:07:45.125Z,-85
2016-08-02T13:08:45.088Z,-85
2016-08-02T13:09:45.091Z,-86
2016-08-02T13:10:45.179Z,-86
2016-08-02T13:11:45.253Z,-85
2016-08-02T13:12:45.060Z,-86
2016-08-02T13:13:45.213Z,-85
2016-08-02T13:14:45.044Z,-85
2016-08-02T13:15:45.112Z,-86
2016-08-02T13:16:45.061Z,-85
2016-08-02T13:17:45.115Z,-86
2016-08-02T13:18:45.182Z,-85
2016-08-02T13:19:45.130Z,-85
2016-08-02T13:20:45.299Z,-85
2016-08-02T13:21:45.150Z,-85
2016-08-02T13:22:45.211Z,-85
2016-08-02T13:23:45.126Z,-85
2016-08-02T13:24:45.224Z,-84
2016-08-02T13:25:45.220Z,-85
2016-08-02T13:26:45.144Z,-85
2016-08-02T13:27:45.247Z,-85
2016-08-02T13:28:45.113Z,-85
2016-08-02T13:29:45.318Z,-85
2016-08-02T13:30:45.147Z,-85
2016-08-02T13:31:45.159Z,-85
2016-08-02T13:32:45.224Z,-85
2016-08-02T13:33:45.282Z,-85
2016-08-02T13:34:45.281Z,-85
2016-08-02T13:35:45.192Z,-85
2016-08-02T13:36:45.328Z,-84
2016-08-02T13:37:45.234Z,-85
2016-08-02T13:38:45.251Z,-85
2016-08-02T13:39:45.334Z,-84
2016-08-02T13:40:45.298Z,-85
2016-08-02T13:41:45.222Z,-86
2016-08-02T13:42:45.197Z,-85
2016-08-02T13:43:45.115Z,-87
2016-08-02T13:44:45.358Z,-85
2016-08-02T13:45:45.275Z,-85
2016-08-02T13:46:45.337Z,-84
2016-08-02T13:47:45.205Z,-84
2016-08-02T13:48:45.195Z,-84
2016-08-02T13:49:45.384Z,-85
2016-08-02T13:50:45.300Z,-85
2016-08-02T13:51:45.288Z,-85
2016-08-02T13:52:45.241Z,-84